createdAt,value
2023-03-16T00:00:17.562Z,970.13
2023-03-16T00:00:53.792Z,970.13
2023-03-16T00:01:18.999Z,970.13
2023-03-16T00:01:49.283Z,970.13
2023-03-16T00:02:21.845Z,970.13
2023-03-16T00:02:51.350Z,970.13
2023-03-16T00:03:23.364Z,970.03
2023-03-16T00:03:53.462Z,970.03
2023-03-16T00:04:24.996Z,970.13
2023-03-16T00:04:56.576Z,970.13
2023-03-16T00:05:27.407Z,969.93
2023-03-16T00:05:57.277Z,969.93
2023-03-16T00:06:29.423Z,970.13
2023-03-16T00:06:59.288Z,970.13
2023-03-16T00:07:31.020Z,969.93
2023-03-16T00:08:01.409Z,969.93
2023-03-16T00:08:33.049Z,970.03
2023-03-16T00:09:03.368Z,970.23
2023-03-16T00:09:34.918Z,970.23
2023-03-16T00:10:06.334Z,970.23
2023-03-16T00:10:37.370Z,970.23
2023-03-16T00:11:07.732Z,970.23
2023-03-16T00:11:39.232Z,970.23
2023-03-16T00:12:09.249Z,970.23
2023-03-16T00:12:41.014Z,970.23
2023-03-16T00:13:11.845Z,970.23
2023-03-16T00:13:43.007Z,970.23
2023-03-16T00:14:13.543Z,970.13
2023-03-16T00:14:44.964Z,970.13
2023-03-16T00:15:16.460Z,970.44
2023-03-16T00:15:48.535Z,970.44
2023-03-16T00:16:17.418Z,970.23
2023-03-16T00:16:49.117Z,970.23
2023-03-16T00:17:19.935Z,970.54
2023-03-16T00:17:50.963Z,970.54
2023-03-16T00:18:21.287Z,970.23
2023-03-16T00:18:52.983Z,970.23
2023-03-16T00:19:23.263Z,970.44
2023-03-16T00:19:55.727Z,970.44
2023-03-16T00:20:28.721Z,970.13
2023-03-16T00:20:56.985Z,970.13
2023-03-16T00:21:27.615Z,970.33
2023-03-16T00:21:58.985Z,970.33
2023-03-16T00:22:29.246Z,970.13
2023-03-16T00:23:01.256Z,970.13
2023-03-16T00:23:31.241Z,970.13
2023-03-16T00:24:03.024Z,970.13
2023-03-16T00:24:33.318Z,970.33
2023-03-16T00:25:05.056Z,970.33
2023-03-16T00:25:37.146Z,970.33
2023-03-16T00:26:06.354Z,970.33
2023-03-16T00:26:37.921Z,970.33
2023-03-16T00:27:09.023Z,970.44
2023-03-16T00:27:39.337Z,970.44
2023-03-16T00:28:10.952Z,970.23
2023-03-16T00:28:41.283Z,970.23
2023-03-16T00:29:13.800Z,970.54
2023-03-16T00:29:43.347Z,970.54
2023-03-16T00:30:16.242Z,970.44
2023-03-16T00:30:46.546Z,970.44
2023-03-16T00:31:17.057Z,970.23
2023-03-16T00:31:47.671Z,970.23
2023-03-16T00:32:18.994Z,970.33
2023-03-16T00:32:49.359Z,970.33
2023-03-16T00:33:21.515Z,970.33
2023-03-16T00:33:51.299Z,970.33
2023-03-16T00:34:22.945Z,970.13
2023-03-16T00:34:53.321Z,970.13
2023-03-16T00:35:25.435Z,970.33
2023-03-16T00:35:57.167Z,970.33
2023-03-16T00:36:26.986Z,970.13
2023-03-16T00:36:57.245Z,970.13
2023-03-16T00:37:29.024Z,970.44
2023-03-16T00:37:59.231Z,970.44
2023-03-16T00:38:31.060Z,970.23
2023-03-16T00:39:01.908Z,970.23
2023-03-16T00:39:33.088Z,970.33
2023-03-16T00:40:04.643Z,970.23
2023-03-16T00:40:41.698Z,970.23
2023-03-16T00:41:06.286Z,970.44
2023-03-16T00:41:36.923Z,970.44
2023-03-16T00:42:07.531Z,970.23
2023-03-16T00:42:38.910Z,970.23
2023-03-16T00:43:09.377Z,970.23
2023-03-16T00:43:41.337Z,970.23
2023-03-16T00:44:11.860Z,970.23
2023-03-16T00:44:42.938Z,970.23
2023-03-16T00:45:14.544Z,970.44
2023-03-16T00:45:45.117Z,970.44
2023-03-16T00:46:16.435Z,970.44
2023-03-16T00:46:47.939Z,970.44
2023-03-16T00:47:17.416Z,970.44
2023-03-16T00:47:49.015Z,970.44
2023-03-16T00:48:19.263Z,970.23
2023-03-16T00:48:50.946Z,970.23
2023-03-16T00:49:21.224Z,970.23
2023-03-16T00:49:52.952Z,970.23
2023-03-16T00:50:23.689Z,970.23
2023-03-16T00:50:54.970Z,970.23
2023-03-16T00:51:26.437Z,970.23
2023-03-16T00:51:56.964Z,970.23
2023-03-16T00:52:27.580Z,970.33
2023-03-16T00:52:58.982Z,970.33
2023-03-16T00:53:29.921Z,970.33
2023-03-16T00:54:01.349Z,970.33
2023-03-16T00:54:31.386Z,970.44
2023-03-16T00:55:03.493Z,970.44
2023-03-16T00:55:33.238Z,970.33
2023-03-16T00:56:04.978Z,970.33
2023-03-16T00:56:36.296Z,970.33
2023-03-16T00:57:06.939Z,970.33
2023-03-16T00:57:37.462Z,970.33
2023-03-16T00:58:09.043Z,970.44
2023-03-16T00:58:39.241Z,970.44
2023-03-16T00:59:10.949Z,970.54
2023-03-16T00:59:41.249Z,970.54
2023-03-16T01:00:15.473Z,970.23
2023-03-16T01:00:49.248Z,970.23
2023-03-16T01:01:15.109Z,970.33
2023-03-16T01:01:46.586Z,970.33
2023-03-16T01:02:16.970Z,970.44
2023-03-16T01:02:47.609Z,970.44
2023-03-16T01:03:19.114Z,970.13
2023-03-16T01:03:49.297Z,970.13
2023-03-16T01:04:20.971Z,970.33
2023-03-16T01:04:51.250Z,970.33
2023-03-16T01:05:23.457Z,970.23
2023-03-16T01:05:53.329Z,970.23
2023-03-16T01:06:25.017Z,970.54
2023-03-16T01:06:56.461Z,970.54
2023-03-16T01:07:26.919Z,970.33
2023-03-16T01:07:57.214Z,970.33
2023-03-16T01:08:28.958Z,970.13
2023-03-16T01:08:59.226Z,970.13
2023-03-16T01:09:30.909Z,970.13
2023-03-16T01:10:02.305Z,970.13
2023-03-16T01:10:32.950Z,970.23
2023-03-16T01:11:03.312Z,970.23
2023-03-16T01:11:34.955Z,970.23
2023-03-16T01:12:06.284Z,970.33
2023-03-16T01:12:36.937Z,970.33
2023-03-16T01:13:07.556Z,970.23
2023-03-16T01:13:39.404Z,970.23
2023-03-16T01:14:09.279Z,970.33
2023-03-16T01:14:40.987Z,970.33
2023-03-16T01:15:12.351Z,970.54
2023-03-16T01:15:43.101Z,970.54
2023-03-16T01:16:13.227Z,970.54
2023-03-16T01:16:44.987Z,970.54
2023-03-16T01:17:16.299Z,970.44
2023-03-16T01:17:46.969Z,970.44
2023-03-16T01:18:17.287Z,970.23
2023-03-16T01:18:49.046Z,970.23
2023-03-16T01:19:19.246Z,970.33
2023-03-16T01:19:50.911Z,970.33
2023-03-16T01:20:22.237Z,970.44
2023-03-16T01:20:52.936Z,970.44
2023-03-16T01:21:23.240Z,969.93
2023-03-16T01:21:54.924Z,969.93
2023-03-16T01:22:26.355Z,970.33
2023-03-16T01:22:56.914Z,970.33
2023-03-16T01:23:27.782Z,970.33
2023-03-16T01:23:59.013Z,970.33
2023-03-16T01:24:29.478Z,970.44
2023-03-16T01:25:07.762Z,970.44
2023-03-16T01:25:31.701Z,970.33
2023-03-16T01:26:02.257Z,970.33
2023-03-16T01:26:33.207Z,970.33
2023-03-16T01:27:05.301Z,970.33
2023-03-16T01:27:36.281Z,970.33
2023-03-16T01:28:07.120Z,970.33
2023-03-16T01:28:37.243Z,970.33
2023-03-16T01:29:09.717Z,970.23
2023-03-16T01:29:39.219Z,970.23
2023-03-16T01:30:12.127Z,970.33
2023-03-16T01:30:41.335Z,970.33
2023-03-16T01:31:12.944Z,970.44
2023-03-16T01:31:43.244Z,970.44
2023-03-16T01:32:14.982Z,970.23
2023-03-16T01:32:46.388Z,970.23
2023-03-16T01:33:16.921Z,970.23
2023-03-16T01:33:48.000Z,970.23
2023-03-16T01:34:18.985Z,970.33
2023-03-16T01:34:49.257Z,970.33
2023-03-16T01:35:21.445Z,970.13
2023-03-16T01:35:51.268Z,970.13
2023-03-16T01:36:22.934Z,970.23
2023-03-16T01:36:53.295Z,970.23
2023-03-16T01:37:25.037Z,970.13
2023-03-16T01:37:56.446Z,970.13
2023-03-16T01:38:26.902Z,970.23
2023-03-16T01:38:57.233Z,970.23
2023-03-16T01:39:29.068Z,970.23
2023-03-16T01:39:59.262Z,970.23
2023-03-16T01:40:38.503Z,970.33
2023-03-16T01:41:01.230Z,970.33
2023-03-16T01:41:32.911Z,970.03
2023-03-16T01:42:03.304Z,970.23
2023-03-16T01:42:35.124Z,970.23
2023-03-16T01:43:06.259Z,969.93
2023-03-16T01:43:37.222Z,969.93
2023-03-16T01:44:07.562Z,970.13
2023-03-16T01:44:38.932Z,970.13
2023-03-16T01:45:10.425Z,970.23
2023-03-16T01:45:41.007Z,970.23
2023-03-16T01:46:11.294Z,970.33
2023-03-16T01:46:42.946Z,970.33
2023-03-16T01:47:13.392Z,970.23
2023-03-16T01:47:50.036Z,970.23
2023-03-16T01:48:16.279Z,970.03
2023-03-16T01:48:47.163Z,970.03
2023-03-16T01:49:17.200Z,970.13
2023-03-16T01:49:48.947Z,970.13
2023-03-16T01:50:20.002Z,970.13
2023-03-16T01:50:50.936Z,970.13
2023-03-16T01:51:21.589Z,969.83
2023-03-16T01:51:52.979Z,969.83
2023-03-16T01:52:23.254Z,970.13
2023-03-16T01:52:54.943Z,970.13
2023-03-16T01:53:26.353Z,970.03
2023-03-16T01:53:57.538Z,970.03
2023-03-16T01:54:27.557Z,970.03
2023-03-16T01:54:58.991Z,970.03
2023-03-16T01:55:29.670Z,970.03
2023-03-16T01:56:01.231Z,970.03
2023-03-16T01:56:31.400Z,970.03
2023-03-16T01:57:02.972Z,970.03
2023-03-16T01:57:33.848Z,970.23
2023-03-16T01:58:04.951Z,970.33
2023-03-16T01:58:36.307Z,970.33
2023-03-16T01:59:06.989Z,970.03
2023-03-16T01:59:37.313Z,970.03
2023-03-16T02:00:10.763Z,970.13
2023-03-16T02:00:50.458Z,970.13
2023-03-16T02:01:10.941Z,970.13
2023-03-16T02:01:41.435Z,970.13
2023-03-16T02:02:12.925Z,970.33
2023-03-16T02:02:43.249Z,970.33
2023-03-16T02:03:14.936Z,970.13
2023-03-16T02:03:46.329Z,970.13
2023-03-16T02:04:17.062Z,970.13
2023-03-16T02:04:47.852Z,970.13
2023-03-16T02:05:19.465Z,970.03
2023-03-16T02:05:49.244Z,970.03
2023-03-16T02:06:20.945Z,970.13
2023-03-16T02:06:51.233Z,970.13
2023-03-16T02:07:23.545Z,970.33
2023-03-16T02:07:53.266Z,970.33
2023-03-16T02:08:25.114Z,970.23
2023-03-16T02:08:56.438Z,970.23
2023-03-16T02:09:26.952Z,970.13
2023-03-16T02:09:57.240Z,970.13
2023-03-16T02:10:29.736Z,970.13
2023-03-16T02:10:59.220Z,970.13
2023-03-16T02:11:30.933Z,970.23
2023-03-16T02:12:01.278Z,970.23
2023-03-16T02:12:32.916Z,970.13
2023-03-16T02:13:03.327Z,970.33
2023-03-16T02:13:34.954Z,970.33
2023-03-16T02:14:06.703Z,970.23
2023-03-16T02:14:36.934Z,970.23
2023-03-16T02:15:10.131Z,970.23
2023-03-16T02:15:39.156Z,970.23
2023-03-16T02:16:09.254Z,970.03
2023-03-16T02:16:40.943Z,970.03
2023-03-16T02:17:11.244Z,970.23
2023-03-16T02:17:42.904Z,970.23
2023-03-16T02:18:13.523Z,969.93
2023-03-16T02:18:44.985Z,969.93
2023-03-16T02:19:16.503Z,970.03
2023-03-16T02:19:46.968Z,970.03
2023-03-16T02:20:17.801Z,970.13
2023-03-16T02:20:49.580Z,970.13
2023-03-16T02:21:19.237Z,970.13
2023-03-16T02:21:50.950Z,970.13
2023-03-16T02:22:21.237Z,970.23
2023-03-16T02:22:52.931Z,970.23
2023-03-16T02:23:23.266Z,970.13
2023-03-16T02:23:54.997Z,970.13
2023-03-16T02:24:26.286Z,970.23
2023-03-16T02:24:56.995Z,970.23
2023-03-16T02:25:27.946Z,970.23
2023-03-16T02:25:58.908Z,970.23
2023-03-16T02:26:29.728Z,970.13
2023-03-16T02:27:00.322Z,970.13
2023-03-16T02:27:32.547Z,970.23
2023-03-16T02:28:02.358Z,970.23
2023-03-16T02:28:33.928Z,970.23
2023-03-16T02:29:04.303Z,970.13
2023-03-16T02:29:36.916Z,970.13
2023-03-16T02:30:07.193Z,970.23
2023-03-16T02:30:37.973Z,970.23
2023-03-16T02:31:08.336Z,970.23
2023-03-16T02:31:39.912Z,970.23
2023-03-16T02:32:10.322Z,970.23
2023-03-16T02:32:42.009Z,970.23
2023-03-16T02:33:12.226Z,970.03
2023-03-16T02:33:43.966Z,970.03
2023-03-16T02:34:14.285Z,970.23
2023-03-16T02:34:46.942Z,970.23
2023-03-16T02:35:16.831Z,970.33
2023-03-16T02:35:48.292Z,970.33
2023-03-16T02:36:18.262Z,970.33
2023-03-16T02:36:49.902Z,970.33
2023-03-16T02:37:20.306Z,970.33
2023-03-16T02:37:51.915Z,970.33
2023-03-16T02:38:22.571Z,970.33
2023-03-16T02:38:53.959Z,970.33
2023-03-16T02:39:24.290Z,970.33
2023-03-16T02:39:56.961Z,970.33
2023-03-16T02:40:28.610Z,970.13
2023-03-16T02:40:58.686Z,970.13
2023-03-16T02:41:28.346Z,970.23
2023-03-16T02:41:59.944Z,970.23
2023-03-16T02:42:30.280Z,970.13
2023-03-16T02:43:02.125Z,970.13
2023-03-16T02:43:32.268Z,970.23
2023-03-16T02:44:04.035Z,970.23
2023-03-16T02:44:34.238Z,970.23
2023-03-16T02:45:07.737Z,970.33
2023-03-16T02:45:36.251Z,970.33
2023-03-16T02:46:08.329Z,970.03
2023-03-16T02:46:38.440Z,970.03
2023-03-16T02:47:10.136Z,970.33
2023-03-16T02:47:40.232Z,970.33
2023-03-16T02:48:11.918Z,970.33
2023-03-16T02:48:42.213Z,970.33
2023-03-16T02:49:13.935Z,970.33
2023-03-16T02:49:44.367Z,970.33
2023-03-16T02:50:18.098Z,970.13
2023-03-16T02:50:46.231Z,970.13
2023-03-16T02:51:17.936Z,970.13
2023-03-16T02:51:48.819Z,970.13
2023-03-16T02:52:19.943Z,970.33
2023-03-16T02:52:50.227Z,970.33
2023-03-16T02:53:21.914Z,970.33
2023-03-16T02:53:52.237Z,970.33
2023-03-16T02:54:24.493Z,970.23
2023-03-16T02:54:54.239Z,970.23
2023-03-16T02:55:27.548Z,970.44
2023-03-16T02:55:56.403Z,970.44
2023-03-16T02:56:28.304Z,970.44
2023-03-16T02:56:58.280Z,970.44
2023-03-16T02:57:29.955Z,970.33
2023-03-16T02:58:00.236Z,970.33
2023-03-16T02:58:32.080Z,970.44
2023-03-16T02:59:02.250Z,970.44
2023-03-16T02:59:33.987Z,970.44
2023-03-16T03:00:06.071Z,970.44
2023-03-16T03:00:38.615Z,970.44
2023-03-16T03:01:07.436Z,970.44
2023-03-16T03:01:38.024Z,970.44
2023-03-16T03:02:10.819Z,970.44
2023-03-16T03:02:39.929Z,970.44
2023-03-16T03:03:10.343Z,970.44
2023-03-16T03:03:41.955Z,970.44
2023-03-16T03:04:12.406Z,970.44
2023-03-16T03:04:44.368Z,970.44
2023-03-16T03:05:15.951Z,970.33
2023-03-16T03:05:47.302Z,970.33
2023-03-16T03:06:16.267Z,970.44
2023-03-16T03:06:48.187Z,970.44
2023-03-16T03:07:18.229Z,970.23
2023-03-16T03:07:50.655Z,970.23
2023-03-16T03:08:20.472Z,970.33
2023-03-16T03:08:51.907Z,970.33
2023-03-16T03:09:22.233Z,970.13
2023-03-16T03:09:53.943Z,970.13
2023-03-16T03:10:24.675Z,970.44
2023-03-16T03:10:56.936Z,970.44
2023-03-16T03:11:26.353Z,970.33
2023-03-16T03:11:57.922Z,970.33
2023-03-16T03:12:28.253Z,970.33
2023-03-16T03:12:59.958Z,970.33
2023-03-16T03:13:30.226Z,970.54
2023-03-16T03:14:01.910Z,970.54
2023-03-16T03:14:32.292Z,970.33
2023-03-16T03:15:05.491Z,970.44
2023-03-16T03:15:34.629Z,970.44
2023-03-16T03:16:06.964Z,970.33
2023-03-16T03:16:36.305Z,970.33
2023-03-16T03:17:08.225Z,970.44
2023-03-16T03:17:38.271Z,970.44
2023-03-16T03:18:09.969Z,970.33
2023-03-16T03:18:40.863Z,970.33
2023-03-16T03:19:11.956Z,970.23
2023-03-16T03:19:42.231Z,970.23
2023-03-16T03:20:14.309Z,970.33
2023-03-16T03:20:47.451Z,970.33
2023-03-16T03:21:17.080Z,970.23
2023-03-16T03:21:46.239Z,970.23
2023-03-16T03:22:17.213Z,970.44
2023-03-16T03:22:48.932Z,970.44
2023-03-16T03:23:19.200Z,970.44
2023-03-16T03:23:50.924Z,970.44
2023-03-16T03:24:21.227Z,970.33
2023-03-16T03:24:52.967Z,970.33
2023-03-16T03:25:24.245Z,970.54
2023-03-16T03:25:54.987Z,970.54
2023-03-16T03:26:26.440Z,970.44
2023-03-16T03:26:56.367Z,970.44
2023-03-16T03:27:28.231Z,970.44
2023-03-16T03:27:58.433Z,970.44
2023-03-16T03:28:29.929Z,970.33
2023-03-16T03:29:00.205Z,970.33
2023-03-16T03:29:31.908Z,970.44
2023-03-16T03:30:02.622Z,970.44
2023-03-16T03:30:35.262Z,970.33
2023-03-16T03:31:04.242Z,970.44
2023-03-16T03:31:37.056Z,970.44
2023-03-16T03:32:06.979Z,970.33
2023-03-16T03:32:37.976Z,970.33
2023-03-16T03:33:08.279Z,970.44
2023-03-16T03:33:39.993Z,970.44
2023-03-16T03:34:10.275Z,970.54
2023-03-16T03:34:42.323Z,970.54
2023-03-16T03:35:12.636Z,970.33
2023-03-16T03:35:44.574Z,970.33
2023-03-16T03:36:14.208Z,970.33
2023-03-16T03:36:46.975Z,970.33
2023-03-16T03:37:16.230Z,970.23
2023-03-16T03:37:48.244Z,970.23
2023-03-16T03:38:18.249Z,970.23
2023-03-16T03:38:49.950Z,970.23
2023-03-16T03:39:20.280Z,970.44
2023-03-16T03:39:51.972Z,970.44
2023-03-16T03:40:22.695Z,970.23
2023-03-16T03:40:53.959Z,970.23
2023-03-16T03:41:24.250Z,970.44
2023-03-16T03:41:56.966Z,970.44
2023-03-16T03:42:26.452Z,970.44
2023-03-16T03:42:57.904Z,970.44
2023-03-16T03:43:28.210Z,970.54
2023-03-16T03:43:59.973Z,970.54
2023-03-16T03:44:30.197Z,970.33
2023-03-16T03:45:02.345Z,970.33
2023-03-16T03:45:33.743Z,970.44
2023-03-16T03:46:04.218Z,970.44
2023-03-16T03:46:34.322Z,970.44
2023-03-16T03:47:07.040Z,970.44
2023-03-16T03:47:36.201Z,970.44
2023-03-16T03:48:08.954Z,970.13
2023-03-16T03:48:38.207Z,970.13
2023-03-16T03:49:09.926Z,970.44
2023-03-16T03:49:40.218Z,970.44
2023-03-16T03:50:12.472Z,970.44
2023-03-16T03:50:42.192Z,970.44
2023-03-16T03:51:13.962Z,970.44
2023-03-16T03:51:44.275Z,970.44
2023-03-16T03:52:16.928Z,970.44
2023-03-16T03:52:46.224Z,970.44
2023-03-16T03:53:18.026Z,970.54
2023-03-16T03:53:48.196Z,970.54
2023-03-16T03:54:19.918Z,970.54
2023-03-16T03:54:50.222Z,970.54
2023-03-16T03:55:22.355Z,970.54
2023-03-16T03:55:52.226Z,970.54
2023-03-16T03:56:23.919Z,970.44
2023-03-16T03:56:54.259Z,970.44
2023-03-16T03:57:27.423Z,970.64
2023-03-16T03:57:56.236Z,970.64
2023-03-16T03:58:28.197Z,970.54
2023-03-16T03:58:58.736Z,970.54
2023-03-16T03:59:29.912Z,970.54
2023-03-16T04:00:00.246Z,970.54
2023-03-16T04:00:32.885Z,970.74
2023-03-16T04:01:02.597Z,970.74
2023-03-16T04:01:34.455Z,970.64
2023-03-16T04:02:04.468Z,970.54
2023-03-16T04:02:37.034Z,970.54
2023-03-16T04:03:06.580Z,970.64
2023-03-16T04:03:38.004Z,970.64
2023-03-16T04:04:08.511Z,970.44
2023-03-16T04:04:39.952Z,970.44
2023-03-16T04:05:10.716Z,970.74
2023-03-16T04:05:41.978Z,970.74
2023-03-16T04:06:12.293Z,970.44
2023-03-16T04:06:44.087Z,970.44
2023-03-16T04:07:14.411Z,970.54
2023-03-16T04:07:47.095Z,970.54
2023-03-16T04:08:16.366Z,970.64
2023-03-16T04:08:48.567Z,970.64
2023-03-16T04:09:18.448Z,970.64
2023-03-16T04:09:49.888Z,970.64
2023-03-16T04:10:20.744Z,970.64
2023-03-16T04:10:51.899Z,970.64
2023-03-16T04:11:22.290Z,970.64
2023-03-16T04:11:53.919Z,970.64
2023-03-16T04:12:24.803Z,970.54
2023-03-16T04:12:57.048Z,970.54
2023-03-16T04:13:26.378Z,970.81
2023-03-16T04:13:57.916Z,970.81
2023-03-16T04:14:28.524Z,970.64
2023-03-16T04:15:00.541Z,970.64
2023-03-16T04:15:31.048Z,970.54
2023-03-16T04:16:02.150Z,970.54
2023-03-16T04:16:32.588Z,970.64
2023-03-16T04:17:04.186Z,970.64
2023-03-16T04:17:34.570Z,970.64
2023-03-16T04:18:07.112Z,970.54
2023-03-16T04:18:38.334Z,970.54
2023-03-16T04:19:08.212Z,970.33
2023-03-16T04:19:38.362Z,970.33
2023-03-16T04:20:10.657Z,970.64
2023-03-16T04:20:40.352Z,970.64
2023-03-16T04:21:11.975Z,970.74
2023-03-16T04:21:42.222Z,970.74
2023-03-16T04:22:14.008Z,970.44
2023-03-16T04:22:44.276Z,970.44
2023-03-16T04:23:17.106Z,970.64
2023-03-16T04:23:46.320Z,970.64
2023-03-16T04:24:18.134Z,970.64
2023-03-16T04:24:48.295Z,970.64
2023-03-16T04:25:20.394Z,970.44
2023-03-16T04:25:50.816Z,970.44
2023-03-16T04:26:21.279Z,970.33
2023-03-16T04:26:52.373Z,970.33
2023-03-16T04:27:23.990Z,970.44
2023-03-16T04:27:54.329Z,970.44
2023-03-16T04:28:27.125Z,970.33
2023-03-16T04:28:56.327Z,970.33
2023-03-16T04:29:28.282Z,970.33
2023-03-16T04:29:58.375Z,970.33
2023-03-16T04:30:31.148Z,970.33
2023-03-16T04:31:00.405Z,970.33
2023-03-16T04:31:32.023Z,970.54
2023-03-16T04:32:02.274Z,970.54
2023-03-16T04:32:34.120Z,970.33
2023-03-16T04:33:04.414Z,970.33
2023-03-16T04:33:36.956Z,970.33
2023-03-16T04:34:06.207Z,970.44
2023-03-16T04:34:37.880Z,970.44
2023-03-16T04:35:08.595Z,970.44
2023-03-16T04:35:39.949Z,970.44
2023-03-16T04:36:10.253Z,970.23
2023-03-16T04:36:41.928Z,970.23
2023-03-16T04:37:12.366Z,970.33
2023-03-16T04:37:43.882Z,970.33
2023-03-16T04:38:14.279Z,970.23
2023-03-16T04:38:47.052Z,970.23
2023-03-16T04:39:16.921Z,970.44
2023-03-16T04:39:48.277Z,970.44
2023-03-16T04:40:18.737Z,970.44
2023-03-16T04:40:49.937Z,970.44
2023-03-16T04:41:20.192Z,970.33
2023-03-16T04:41:52.486Z,970.33
2023-03-16T04:42:22.184Z,970.23
2023-03-16T04:42:53.930Z,970.23
2023-03-16T04:43:24.220Z,970.44
2023-03-16T04:43:57.004Z,970.44
2023-03-16T04:44:26.336Z,970.64
2023-03-16T04:44:57.931Z,970.64
2023-03-16T04:45:28.947Z,970.33
2023-03-16T04:46:00.202Z,970.33
2023-03-16T04:46:30.283Z,970.54
2023-03-16T04:47:01.908Z,970.54
2023-03-16T04:47:32.248Z,970.54
2023-03-16T04:48:04.007Z,970.54
2023-03-16T04:48:34.223Z,970.54
2023-03-16T04:49:06.922Z,970.54
2023-03-16T04:49:36.172Z,970.54
2023-03-16T04:50:08.750Z,970.44
2023-03-16T04:50:38.179Z,970.44
2023-03-16T04:51:09.889Z,970.44
2023-03-16T04:51:40.177Z,970.44
2023-03-16T04:52:11.902Z,970.44
2023-03-16T04:52:42.558Z,970.44
2023-03-16T04:53:13.981Z,970.44
2023-03-16T04:53:44.165Z,970.44
2023-03-16T04:54:16.975Z,970.54
2023-03-16T04:54:46.205Z,970.54
2023-03-16T04:55:19.239Z,970.44
2023-03-16T04:55:48.189Z,970.44
2023-03-16T04:56:20.105Z,970.54
2023-03-16T04:56:50.212Z,970.54
2023-03-16T04:57:21.920Z,970.54
2023-03-16T04:57:52.195Z,970.54
2023-03-16T04:58:23.884Z,970.54
2023-03-16T04:58:54.236Z,970.54
2023-03-16T04:59:27.036Z,970.64
2023-03-16T04:59:56.326Z,970.64
2023-03-16T05:00:29.670Z,970.64
2023-03-16T05:01:01.831Z,970.64
2023-03-16T05:01:29.976Z,970.64
2023-03-16T05:02:00.278Z,970.64
2023-03-16T05:02:32.121Z,970.64
2023-03-16T05:03:02.207Z,970.64
2023-03-16T05:03:33.924Z,970.54
2023-03-16T05:04:04.257Z,970.54
2023-03-16T05:04:37.350Z,970.54
2023-03-16T05:05:06.921Z,970.81
2023-03-16T05:05:38.183Z,970.81
2023-03-16T05:06:08.987Z,970.74
2023-03-16T05:06:39.896Z,970.74
2023-03-16T05:07:10.314Z,970.74
2023-03-16T05:07:41.898Z,970.74
2023-03-16T05:08:12.185Z,970.54
2023-03-16T05:08:44.127Z,970.54
2023-03-16T05:09:14.228Z,970.74
2023-03-16T05:09:47.112Z,970.74
2023-03-16T05:10:17.136Z,970.81
2023-03-16T05:10:48.337Z,970.81
2023-03-16T05:11:18.257Z,970.64
2023-03-16T05:11:49.951Z,970.64
2023-03-16T05:12:20.205Z,970.74
2023-03-16T05:12:52.293Z,970.74
2023-03-16T05:13:22.484Z,970.64
2023-03-16T05:13:53.947Z,970.64
2023-03-16T05:14:24.200Z,970.54
2023-03-16T05:14:57.102Z,970.54
2023-03-16T05:15:28.050Z,970.64
2023-03-16T05:15:58.049Z,970.64
2023-03-16T05:16:28.383Z,970.74
2023-03-16T05:17:00.055Z,970.74
2023-03-16T05:17:30.406Z,970.81
2023-03-16T05:18:02.067Z,970.81
2023-03-16T05:18:32.310Z,970.74
2023-03-16T05:19:04.163Z,970.74
2023-03-16T05:19:34.812Z,970.74
2023-03-16T05:20:07.529Z,970.64
2023-03-16T05:20:38.016Z,970.64
2023-03-16T05:21:08.374Z,970.54
2023-03-16T05:21:38.368Z,970.54
2023-03-16T05:22:11.406Z,970.54
2023-03-16T05:22:40.369Z,970.54
2023-03-16T05:23:12.045Z,970.74
2023-03-16T05:23:42.494Z,970.74
2023-03-16T05:24:14.050Z,970.81
2023-03-16T05:24:44.314Z,970.81
2023-03-16T05:25:17.740Z,970.74
2023-03-16T05:25:47.227Z,970.74
2023-03-16T05:26:17.857Z,970.74
2023-03-16T05:26:48.382Z,970.74
2023-03-16T05:27:20.040Z,970.54
2023-03-16T05:27:50.348Z,970.54
2023-03-16T05:28:22.034Z,970.81
2023-03-16T05:28:52.350Z,970.81
2023-03-16T05:29:24.287Z,970.54
2023-03-16T05:29:54.335Z,970.54
2023-03-16T05:30:28.214Z,970.64
2023-03-16T05:30:56.597Z,970.64
2023-03-16T05:31:28.379Z,970.74
2023-03-16T05:31:58.390Z,970.74
2023-03-16T05:32:30.095Z,970.64
2023-03-16T05:33:01.193Z,970.64
2023-03-16T05:33:32.063Z,970.64
2023-03-16T05:34:02.348Z,970.64
2023-03-16T05:34:34.023Z,970.81
2023-03-16T05:35:04.328Z,970.44
2023-03-16T05:35:38.016Z,970.44
2023-03-16T05:36:06.428Z,970.64
2023-03-16T05:36:38.307Z,970.64
2023-03-16T05:37:08.386Z,970.81
2023-03-16T05:37:40.058Z,970.81
2023-03-16T05:38:10.401Z,970.64
2023-03-16T05:38:42.044Z,970.64
2023-03-16T05:39:12.276Z,970.54
2023-03-16T05:39:44.465Z,970.54
2023-03-16T05:40:15.020Z,970.64
2023-03-16T05:40:49.720Z,970.64
2023-03-16T05:41:16.381Z,970.54
2023-03-16T05:41:48.317Z,970.54
2023-03-16T05:42:18.361Z,970.54
2023-03-16T05:42:50.057Z,970.54
2023-03-16T05:43:20.549Z,970.74
2023-03-16T05:43:52.035Z,970.74
2023-03-16T05:44:22.354Z,970.54
2023-03-16T05:44:54.045Z,970.54
2023-03-16T05:45:25.144Z,970.74
2023-03-16T05:45:57.181Z,970.74
2023-03-16T05:46:27.140Z,970.74
2023-03-16T05:46:58.667Z,970.74
2023-03-16T05:47:28.353Z,970.74
2023-03-16T05:47:59.982Z,970.74
2023-03-16T05:48:30.394Z,970.74
2023-03-16T05:49:02.679Z,970.74
2023-03-16T05:49:32.390Z,970.74
2023-03-16T05:50:04.131Z,970.54
2023-03-16T05:50:34.802Z,970.54
2023-03-16T05:51:07.038Z,970.74
2023-03-16T05:51:36.397Z,970.74
2023-03-16T05:52:08.410Z,970.64
2023-03-16T05:52:38.326Z,970.64
2023-03-16T05:53:10.381Z,970.54
2023-03-16T05:53:40.492Z,970.54
2023-03-16T05:54:12.030Z,970.54
2023-03-16T05:54:42.353Z,970.54
2023-03-16T05:55:14.416Z,970.54
2023-03-16T05:55:44.289Z,970.54
2023-03-16T05:56:17.170Z,970.64
2023-03-16T05:56:46.352Z,970.64
2023-03-16T05:57:18.069Z,970.64
2023-03-16T05:57:48.429Z,970.64
2023-03-16T05:58:20.037Z,970.54
2023-03-16T05:58:50.306Z,970.54
2023-03-16T05:59:22.024Z,970.64
2023-03-16T05:59:52.901Z,970.64
2023-03-16T06:00:25.756Z,970.64
2023-03-16T06:00:58.145Z,970.64
2023-03-16T06:01:27.213Z,970.64
2023-03-16T06:01:56.489Z,970.64
2023-03-16T06:02:29.012Z,970.64
2023-03-16T06:02:58.435Z,970.64
2023-03-16T06:03:30.059Z,970.64
2023-03-16T06:04:00.558Z,970.64
2023-03-16T06:04:32.219Z,970.64
2023-03-16T06:05:02.437Z,970.64
2023-03-16T06:05:34.500Z,970.54
2023-03-16T06:06:04.348Z,970.44
2023-03-16T06:06:37.046Z,970.44
2023-03-16T06:07:06.415Z,970.74
2023-03-16T06:07:38.082Z,970.74
2023-03-16T06:08:08.453Z,970.54
2023-03-16T06:08:40.168Z,970.54
2023-03-16T06:09:10.443Z,970.54
2023-03-16T06:09:42.027Z,970.54
2023-03-16T06:10:12.776Z,970.64
2023-03-16T06:10:44.026Z,970.64
2023-03-16T06:11:14.312Z,970.91
2023-03-16T06:11:47.738Z,970.91
2023-03-16T06:12:16.341Z,970.91
2023-03-16T06:12:48.441Z,970.91
2023-03-16T06:13:19.005Z,970.44
2023-03-16T06:13:50.121Z,970.44
2023-03-16T06:14:20.358Z,970.74
2023-03-16T06:14:52.082Z,970.74
2023-03-16T06:15:23.323Z,970.81
2023-03-16T06:15:54.778Z,970.81
2023-03-16T06:16:24.380Z,970.44
2023-03-16T06:16:57.128Z,970.44
2023-03-16T06:17:26.561Z,970.64
2023-03-16T06:17:58.079Z,970.64
2023-03-16T06:18:28.336Z,970.81
2023-03-16T06:19:00.261Z,970.81
2023-03-16T06:19:30.454Z,970.74
2023-03-16T06:20:03.077Z,970.74
2023-03-16T06:20:39.656Z,970.64
2023-03-16T06:21:04.155Z,970.74
2023-03-16T06:21:34.926Z,970.74
2023-03-16T06:22:07.340Z,970.74
2023-03-16T06:22:36.434Z,970.74
2023-03-16T06:23:08.393Z,970.81
2023-03-16T06:23:38.369Z,970.81
2023-03-16T06:24:10.062Z,970.64
2023-03-16T06:24:40.429Z,970.64
2023-03-16T06:25:12.450Z,970.74
2023-03-16T06:25:42.390Z,970.74
2023-03-16T06:26:14.034Z,970.91
2023-03-16T06:26:45.086Z,970.91